Data for 04/19/2006

Time Sea-Level Adjusted Pressure Absolute Pressure Temperature Relative Humidity Dew Point   
(mb) (inHg) (mb) (inHg) (C) (F) (%) (C) (F)
00:05 1023 30.21 852 25.16 -0.1 31.7 66 -5.8 21.5
00:10 1023 30.21 852 25.16 -0.2 31.7 65 -6 21.2
00:15 1023 30.21 852 25.16 -0.2 31.6 65 -5.9 21.3
00:20 1023 30.21 852 25.16 -0.3 31.5 66 -6 21.2
00:25 1023 30.21 852 25.16 -0.5 31.1 66 -6 21.2
00:30 1023 30.21 852 25.16 -0.5 31.2 65 -6.3 20.6
00:35 1023 30.21 852 25.16 -0.5 31.1 65 -6.3 20.7
00:40 1023 30.21 852 25.16 -0.5 31.1 64 -6.5 20.3
00:45 1023 30.21 852 25.16 -0.3 31.4 62 -6.7 20
00:50 1023 30.21 852 25.16 -0.2 31.6 62 -6.5 20.2
00:55 1023 30.21 852 25.16 -0.4 31.3 64 -6.3 20.6
01:00 1023 30.21 852 25.16 -0.5 31.1 66 -6.1 20.9
01:05 1023 30.21 852 25.16 -0.6 30.9 66 -6.2 20.8
01:10 1023 30.21 852 25.16 -0.6 30.9 67 -5.9 21.3
01:15 1023 30.21 852 25.16 -0.7 30.7 67 -6.1 21.1
01:20 1023 30.21 852 25.16 -1 30.3 68 -6.1 21
01:25 1023 30.21 852 25.16 -1.1 30.1 69 -6 21.2
01:30 1023 30.21 852 25.16 -1.3 29.6 71 -6 21.2
01:35 1023 30.21 852 25.16 -1.5 29.3 72 -6 21.2
01:40 1023 30.21 852 25.16 -1.6 29.2 72 -6 21.2
01:45 1023 30.21 852 25.16 -1.7 29 74 -5.7 21.8
01:50 1023 30.21 852 25.16 -2 28.4 76 -5.7 21.8
01:55 1023 30.21 852 25.16 -2.1 28.2 77 -5.7 21.7
02:00 1023 30.21 852 25.16 -2.1 28.2 75 -6 21.2
02:05 1023 30.21 852 25.16 -2 28.4 74 -6.1 21.1
02:10 1023 30.21 852 25.16 -2.1 28.3 74 -6.1 21.1
02:15 1023 30.21 852 25.16 -2.1 28.2 75 -6 21.2
02:20 1023 30.21 852 25.16 -2.1 28.3 73 -6.4 20.5
02:25 1023 30.21 852 25.16 -1.8 28.7 71 -6.5 20.3
02:30 1023 30.21 852 25.16 -1.7 29 70 -6.4 20.5
02:35 1023 30.21 852 25.16 -1.8 28.8 72 -6.1 21
02:40 1023 30.21 852 25.16 -2 28.3 73 -6.2 20.8
02:45 1023 30.21 852 25.16 -2 28.5 72 -6.3 20.7
02:50 1023 30.21 852 25.16 -2.1 28.3 73 -6.2 20.8
02:55 1023 30.21 852 25.16 -2.1 28.2 73 -6.3 20.7
03:00 1023 30.21 852 25.16 -2.2 28 74 -6.3 20.7
03:05 1023 30.21 852 25.16 -2.2 28 73 -6.3 20.6
03:10 1023 30.21 852 25.16 -2.2 28 73 -6.4 20.5
03:15 1023 30.21 852 25.16 -2.2 28 73 -6.5 20.4
03:20 1023 30.21 852 25.16 -2.2 28 73 -6.4 20.4
03:25 1023 30.21 852 25.16 -2.4 27.6 74 -6.4 20.4
03:30 1023 30.21 852 25.16 -2.6 27.4 75 -6.4 20.5
03:35 1023 30.21 852 25.16 -2.8 27 77 -6.3 20.6
03:40 1023 30.21 852 25.16 -2.9 26.7 78 -6.3 20.6
03:45 1023 30.21 852 25.16 -3 26.5 78 -6.4 20.5
03:50 1023 30.21 852 25.16 -3.1 26.4 78 -6.5 20.3
03:55 1023 30.21 852 25.16 -3.1 26.4 78 -6.5 20.3
04:00 1023 30.21 852 25.16 -3.1 26.4 77 -6.6 20.1
04:05 1023 30.21 852 25.16 -3 26.6 76 -6.7 19.9
04:10 1023 30.21 852 25.16 -2.8 26.9 74 -6.8 19.8
04:15 1023 30.21 852 25.16 -2.7 27.1 73 -6.9 19.6
04:20 1023 30.21 852 25.16 -2.8 26.9 75 -6.7 20
04:25 1023 30.21 852 25.16 -2.9 26.7 76 -6.5 20.3
04:30 1023 30.21 852 25.16 -3 26.6 78 -6.3 20.6
04:35 1023 30.21 852 25.16 -3 26.6 78 -6.3 20.7
04:40 1023 30.21 852 25.16 -3 26.6 78 -6.3 20.7
04:45 1023 30.21 852 25.16 -2.9 26.7 77 -6.5 20.3
04:50 1023 30.21 852 25.16 -3.1 26.4 80 -6.1 21
04:55 1023 30.21 852 25.16 -3.2 26.2 80 -6.2 20.8
05:00 1023 30.21 852 25.16 -3.3 26.1 80 -6.2 20.8
05:05 1023 30.21 852 25.16 -3.4 26 81 -6.2 20.9
05:10 1023 30.21 852 25.16 -3.5 25.7 82 -6.2 20.9
05:15 1023 30.21 852 25.16 -3.6 25.6 82 -6.3 20.7
05:20 1023 30.21 852 25.16 -3.6 25.5 83 -6.1 20.9
05:25 1023 30.21 852 25.16 -3.7 25.4 82 -6.3 20.6
05:30 1023 30.21 852 25.16 -3.5 25.7 81 -6.2 20.8
05:35 1023 30.21 852 25.16 -3.5 25.7 82 -6.2 20.9
05:40 1023 30.21 852 25.16 -3.6 25.5 82 -6.3 20.6
05:45 1023 30.21 852 25.16 -3.8 25.2 83 -6.2 20.8
05:50 1023 30.21 852 25.16 -4 24.9 84 -6.3 20.7
05:55 1023 30.21 852 25.16 -4 24.8 85 -6.2 20.8
06:00 1023 30.21 852 25.16 -4 24.8 84 -6.3 20.7
06:05 1023 30.21 852 25.16 -4.1 24.6 85 -6.3 20.7
06:10 1023 30.21 852 25.16 -4.1 24.5 85 -6.4 20.5
06:15 1023 30.21 852 25.16 -4.2 24.4 85 -6.4 20.5
06:20 1023 30.21 852 25.16 -4.3 24.3 85 -6.5 20.4
06:25 1022 30.18 852 25.16 -4.3 24.2 85 -6.5 20.3
06:30 1023 30.21 852 25.16 -4.4 24.2 84 -6.6 20.1
06:35 1023 30.21 852 25.16 -4.3 24.3 84 -6.6 20.2
06:40 1023 30.21 852 25.16 -4.4 24.1 85 -6.5 20.2
06:45 1023 30.21 852 25.16 -4.5 24 85 -6.6 20.1
06:50 1023 30.21 852 25.16 -4.3 24.2 84 -6.6 20.1
06:55 1023 30.21 852 25.16 -4.2 24.5 83 -6.7 20
07:00 1023 30.21 852 25.16 -4 24.9 81 -6.7 19.9
07:05 1023 30.21 852 25.16 -3.7 25.4 80 -6.7 20
07:10 1023 30.21 852 25.16 -3.5 25.7 79 -6.7 20
07:15 1023 30.21 852 25.16 -3.3 26.1 78 -6.6 20.2
07:20 1023 30.21 852 25.16 -3.3 26.1 79 -6.5 20.3
07:25 1023 30.21 852 25.16 -3.4 25.8 80 -6.4 20.5
07:30 1023 30.21 852 25.16 -3.4 25.9 79 -6.4 20.4
07:35 1023 30.21 852 25.16 -3.2 26.3 79 -6.3 20.7
07:40 1023 30.21 852 25.16 -3.2 26.3 78 -6.5 20.3
07:45 1023 30.21 852 25.16 -2.8 27 75 -6.5 20.3
07:50 1023 30.21 852 25.16 -2.4 27.6 74 -6.4 20.4
07:55 1023 30.21 852 25.16 -2.1 28.1 74 -6.2 20.8
08:00 1023 30.21 852 25.16 -1.9 28.7 72 -6.2 20.8
08:05 1023 30.21 852 25.16 -1.7 28.9 73 -5.9 21.4
08:10 1023 30.21 852 25.16 -1.3 29.6 70 -6.1 21
08:15 1023 30.21 852 25.16 -0.8 30.5 69 -5.8 21.5
08:20 1023 30.21 852 25.16 -0.9 30.5 68 -6 21.2
08:25 1023 30.21 852 25.16 -0.7 30.7 67 -6.1 21.1
08:30 1023 30.21 852 25.16 -0.5 31.1 67 -6 21.3
08:35 1023 30.21 852 25.16 0.2 32.4 64 -5.8 21.5
08:40 1023 30.21 852 25.16 0.8 33.4 62 -5.6 21.9
08:45 1023 30.21 852 25.16 0.8 33.4 64 -5.3 22.4
08:50 1023 30.21 852 25.16 1.4 34.5 61 -5.2 22.6
08:55 1023 30.21 852 25.16 1.7 35.1 58 -5.6 21.9
09:00 1023 30.21 852 25.16 1.8 35.2 57 -5.9 21.5
09:05 1023 30.21 852 25.16 2.3 36.1 54 -6 21.1
09:10 1023 30.21 852 25.16 2.8 37 52 -6 21.2
09:15 1023 30.21 852 25.16 2.6 36.7 54 -5.7 21.8
09:20 1023 30.21 852 25.16 3 37.3 51 -6.1 21
09:25 1022 30.18 852 25.16 3.1 37.6 46 -7.4 18.6
09:30 1022 30.18 852 25.16 2.9 37.2 48 -7.1 19.3
09:35 1022 30.18 852 25.16 3.2 37.7 48 -7 19.5
09:40 1022 30.18 852 25.16 4 39.2 41 -8 17.7
09:45 1022 30.18 852 25.16 4.3 39.8 39 -8.3 17
09:50 1022 30.18 852 25.16 4.4 40 40 -8.1 17.4
09:55 1022 30.18 852 25.16 4.5 40.1 40 -7.8 17.9
10:00 1022 30.18 852 25.16 4.1 39.4 42 -7.5 18.4
10:05 1022 30.18 851 25.13 4.6 40.3 40 -8 17.6
10:10 1022 30.18 851 25.13 5.3 41.6 37 -8 17.5
10:15 1022 30.18 851 25.13 5.6 42.1 37 -7.9 17.7
10:20 1022 30.18 851 25.13 5.3 41.5 39 -7.6 18.2
10:25 1022 30.18 851 25.13 5.3 41.6 38 -7.8 18
10:30 1022 30.18 851 25.13 5.7 42.3 37 -7.7 18.1
10:35 1022 30.18 851 25.13 5.4 41.7 38 -7.7 18.2
10:40 1022 30.18 851 25.13 5.9 42.6 36 -8.1 17.4
10:45 1022 30.18 851 25.13 6.2 43.1 36 -7.8 17.9
10:50 1022 30.18 851 25.13 6.4 43.5 37 -7.4 18.6
10:55 1022 30.18 851 25.13 6.5 43.7 37 -7.3 18.9
11:00 1022 30.18 851 25.13 7 44.5 34 -8 17.7
11:05 1022 30.18 851 25.13 5.9 42.7 37 -7.6 18.3
11:10 1022 30.18 851 25.13 6.4 43.5 35 -8.1 17.5
11:15 1022 30.18 851 25.13 5.8 42.5 37 -7.6 18.2
11:20 1022 30.18 851 25.13 6 42.8 35 -8.3 17.1
11:25 1022 30.18 851 25.13 6.2 43.1 35 -8.4 17
11:30 1022 30.18 851 25.13 6.5 43.7 34 -8.3 17.1
11:35 1022 30.18 851 25.13 7 44.7 33 -8.2 17.2
11:40 1022 30.18 851 25.13 7.1 44.8 35 -7.5 18.5
11:45 1022 30.18 851 25.13 7.2 44.9 32 -8.3 17
11:50 1022 30.18 851 25.13 7.3 45.2 33 -8.1 17.4
11:55 1022 30.18 851 25.13 6.8 44.3 33 -8.2 17.3
12:00 1021 30.15 851 25.13 7.2 45 33 -7.9 17.8
12:05 1021 30.15 851 25.13 7.7 45.8 32 -8.2 17.3
12:10 1021 30.15 851 25.13 7.7 45.9 31 -8.2 17.2
12:15 1021 30.15 850 25.1 7.8 46 30 -8.9 16.1
12:20 1021 30.15 850 25.1 7.6 45.6 32 -8.2 17.2
12:25 1021 30.15 850 25.1 8.1 46.5 31 -7.9 17.8
12:30 1021 30.15 850 25.1 7.8 46 32 -7.9 17.8
12:35 1021 30.15 850 25.1 7.8 46.1 32 -7.9 17.8
12:40 1021 30.15 850 25.1 7.7 45.8 30 -8.9 16
12:45 1021 30.15 850 25.1 8.4 47.1 31 -7.9 17.8
12:50 1021 30.15 850 25.1 8.9 47.9 30 -7.8 17.9
12:55 1021 30.15 850 25.1 8.8 47.8 29 -8.3 17.1
13:00 1021 30.15 850 25.1 8.6 47.4 30 -8 17.6
13:05 1021 30.15 850 25.1 7.6 45.7 33 -7.8 17.9
13:10 1021 30.15 850 25.1 8.5 47.3 32 -7.5 18.6
13:15 1021 30.15 850 25.1 9.1 48.3 30 -7.6 18.3
13:20 1020 30.12 850 25.1 7.9 46.1 32 -7.7 18.1
13:25 1020 30.12 850 25.1 7.4 45.4 33 -7.8 17.9
13:30 1020 30.12 849 25.07 7.5 45.4 33 -7.7 18.1
13:35 1020 30.12 849 25.07 8.4 47.1 31 -7.7 18.2
13:40 1020 30.12 849 25.07 8.8 47.9 30 -7.7 18.1
13:45 1020 30.12 849 25.07 9.2 48.5 28 -8.2 17.3
13:50 1020 30.12 849 25.07 8.8 47.8 30 -7.9 17.7
13:55 1020 30.12 849 25.07 9.1 48.4 30 -7.5 18.5
14:00 1020 30.12 849 25.07 9.6 49.2 29 -7.6 18.2
14:05 1020 30.12 849 25.07 9.6 49.4 28 -7.8 18
14:10 1020 30.12 849 25.07 10.4 50.7 27 -7.9 17.7
14:15 1020 30.12 849 25.07 9.7 49.5 30 -7.1 19.3
14:20 1020 30.12 849 25.07 9.6 49.4 27 -8.2 17.2
14:25 1020 30.12 849 25.07 10.2 50.4 28 -7.5 18.5
14:30 1020 30.12 849 25.07 10 49.9 27 -8.3 17
14:35 1020 30.12 849 25.07 10.5 50.8 25 -8.7 16.4
14:40 1020 30.12 849 25.07 10.4 50.7 24 -9.2 15.4
14:45 1020 30.12 849 25.07 10.6 51 24 -9.1 15.7
14:50 1020 30.12 849 25.07 10.1 50.2 23 -9.9 14.1
14:55 1020 30.12 849 25.07 10.4 50.7 23 -10 14.1
15:00 1020 30.12 849 25.07 10.8 51.4 23 -9.6 14.7
15:05 1020 30.12 849 25.07 11.2 52.1 23 -9.3 15.2
15:10 1020 30.12 849 25.07 11.1 52 23 -9 15.7
15:15 1019 30.09 849 25.07 11.1 51.9 23 -9.2 15.5
15:20 1019 30.09 849 25.07 11.2 52.1 22 -9.8 14.4
15:25 1019 30.09 849 25.07 10.7 51.2 24 -9.1 15.6
15:30 1019 30.09 848 25.04 10.8 51.4 23 -9.4 15
15:35 1019 30.09 848 25.04 10.9 51.7 23 -9.6 14.7
15:40 1019 30.09 848 25.04 11.1 52 23 -9 15.8
15:45 1019 30.09 848 25.04 11.1 52 23 -9.2 15.4
15:50 1019 30.09 848 25.04 11.1 52 22 -9.8 14.3
15:55 1019 30.09 848 25.04 10.9 51.6 22 -9.8 14.4
16:00 1019 30.09 848 25.04 11.3 52.3 22 -9.8 14.3
16:05 1019 30.09 848 25.04 11.1 52 22 -9.7 14.6
16:10 1019 30.09 848 25.04 10.8 51.4 21 -10.4 13.2
16:15 1019 30.09 848 25.04 11.4 52.6 22 -9.4 15.1
16:20 1019 30.09 848 25.04 12 53.6 22 -9.1 15.6
16:25 1019 30.09 848 25.04 12 53.6 21 -9.4 15.1
16:30 1019 30.09 848 25.04 12 53.5 21 -9.7 14.5
16:35 1019 30.09 848 25.04 12.1 53.8 21 -9.6 14.7
16:40 1019 30.09 848 25.04 12.3 54.1 21 -9.2 15.5
16:45 1019 30.09 848 25.04 12.2 53.9 24 -8 17.6
16:50 1019 30.09 848 25.04 11.7 53.1 25 -7.9 17.8
16:55 1019 30.09 848 25.04 10.9 51.6 24 -8.9 15.9
17:00 1019 30.09 848 25.04 11.6 52.8 24 -8.2 17.2
17:05 1019 30.09 848 25.04 12 53.6 24 -8 17.6
17:10 1019 30.09 848 25.04 11.3 52.3 26 -7.6 18.4
17:15 1019 30.09 848 25.04 11.2 52.1 24 -8.4 16.8
17:20 1019 30.09 848 25.04 11.6 52.8 25 -7.9 17.7
17:25 1019 30.09 848 25.04 11.7 53 25 -7.7 18.1
17:30 1019 30.09 848 25.04 11.5 52.7 25 -7.7 18.1
17:35 1019 30.09 848 25.04 10.9 51.6 26 -8 17.7
17:40 1019 30.09 848 25.04 10.9 51.6 25 -8.2 17.3
17:45 1019 30.09 848 25.04 10.9 51.6 25 -8.2 17.2
17:50 1019 30.09 848 25.04 11 51.9 25 -8.3 17
17:55 1019 30.09 848 25.04 11.2 52.1 25 -8.2 17.3
18:00 1019 30.09 848 25.04 12 53.6 24 -8.2 17.3
18:05 1019 30.09 848 25.04 11.6 52.9 24 -8.1 17.5
18:10 1019 30.09 848 25.04 11.2 52.2 25 -8 17.5
18:15 1018 30.06 848 25.04 11.6 52.8 24 -8.2 17.3
18:20 1018 30.06 848 25.04 12.2 53.9 24 -8 17.7
18:25 1018 30.06 848 25.04 11.9 53.5 24 -7.8 17.9
18:30 1018 30.06 848 25.04 11.8 53.2 24 -8 17.5
18:35 1018 30.06 848 25.04 11.7 53.1 25 -7.7 18.1
18:40 1018 30.06 848 25.04 10.9 51.6 26 -7.7 18.2
18:45 1018 30.06 848 25.04 10.5 50.8 27 -7.6 18.3
18:50 1018 30.06 847 25.01 10.4 50.7 28 -7.6 18.4
18:55 1018 30.06 847 25.01 10.6 51 26 -7.9 17.8
19:00 1018 30.06 847 25.01 10.3 50.5 27 -8 17.6
19:05 1018 30.06 847 25.01 10.3 50.5 27 -8.1 17.5
19:10 1018 30.06 847 25.01 9.9 49.9 27 -8 17.6
19:15 1018 30.06 847 25.01 10 49.9 28 -7.7 18.2
19:20 1018 30.06 847 25.01 10.1 50.2 27 -8 17.5
19:25 1018 30.06 847 25.01 10.2 50.4 27 -7.9 17.8
19:30 1018 30.06 847 25.01 10 50 27 -8 17.7
19:35 1018 30.06 847 25.01 9.8 49.7 28 -8 17.6
19:40 1018 30.06 847 25.01 9.9 49.9 28 -7.9 17.8
19:45 1018 30.06 847 25.01 10 49.9 28 -7.8 18
19:50 1018 30.06 847 25.01 9.7 49.5 28 -7.9 17.8
19:55 1018 30.06 847 25.01 9.5 49.2 28 -8.3 17.1
20:00 1018 30.06 847 25.01 9.4 48.8 28 -8.3 17
20:05 1018 30.06 847 25.01 9.3 48.7 28 -8.1 17.4
20:10 1018 30.06 848 25.04 9.2 48.5 29 -7.8 17.9
20:15 1018 30.06 848 25.04 8.7 47.6 46 -2.2 28
20:20 1018 30.06 847 25.01 7.6 45.6 49 -2.5 27.6
20:25 1018 30.06 848 25.04 7.4 45.2 50 -2.3 27.8
20:30 1018 30.06 848 25.04 6.9 44.4 55 -1.6 29.1
20:35 1018 30.06 848 25.04 6.4 43.6 57 -1.5 29.2
20:40 1018 30.06 848 25.04 6.1 42.9 59 -1.5 29.4
20:45 1018 30.06 848 25.04 5.8 42.5 59 -1.6 29.1
20:50 1018 30.06 848 25.04 5.7 42.2 60 -1.5 29.3
20:55 1018 30.06 848 25.04 5.4 41.7 59 -1.9 28.5
21:00 1019 30.09 848 25.04 5.3 41.5 59 -2.1 28.3
21:05 1018 30.06 848 25.04 5.3 41.5 59 -2.1 28.3
21:10 1019 30.09 848 25.04 5.3 41.5 60 -1.9 28.5
21:15 1019 30.09 848 25.04 5 40.9 61 -1.9 28.6
21:20 1019 30.09 848 25.04 4.5 40.2 63 -2 28.4
21:25 1019 30.09 848 25.04 4.3 39.7 63 -2.1 28.2
21:30 1019 30.09 848 25.04 4.1 39.4 64 -2.1 28.2
21:35 1019 30.09 848 25.04 4 39.2 64 -2.2 28.1
21:40 1019 30.09 848 25.04 4 39.1 63 -2.4 27.6
21:45 1019 30.09 848 25.04 4 39.2 62 -2.7 27.2
21:50 1019 30.09 848 25.04 4 39.2 61 -2.7 27.1
21:55 1019 30.09 848 25.04 4 39.2 61 -2.8 27
22:00 1019 30.09 848 25.04 3.8 38.8 62 -2.9 26.9
22:05 1019 30.09 848 25.04 3.7 38.7 63 -2.7 27.1
22:10 1019 30.09 848 25.04 3.4 38.2 63 -2.8 26.9
22:15 1019 30.09 848 25.04 3.3 38 62 -3.2 26.3
22:20 1019 30.09 848 25.04 3.5 38.3 61 -3.3 26.1
22:25 1019 30.09 848 25.04 3.5 38.3 61 -3.3 26.1
22:30 1019 30.09 848 25.04 3.4 38.1 61 -3.4 25.8
22:35 1019 30.09 848 25.04 3.4 38.1 61 -3.5 25.7
22:40 1019 30.09 848 25.04 3.3 38 59 -3.9 24.9
22:45 1019 30.09 848 25.04 3.2 37.8 61 -3.5 25.7
22:50 1019 30.09 848 25.04 3.1 37.5 62 -3.5 25.7
22:55 1019 30.09 848 25.04 3 37.3 61 -3.8 25.2
23:00 1019 30.09 848 25.04 3 37.4 62 -3.6 25.5
23:05 1019 30.09 848 25.04 3.1 37.5 60 -3.9 25
23:10 1019 30.09 848 25.04 3.1 37.6 61 -3.7 25.4
23:15 1019 30.09 848 25.04 2.9 37.2 62 -3.7 25.3
23:20 1019 30.09 848 25.04 3 37.4 59 -4.3 24.2
23:25 1019 30.09 848 25.04 3.2 37.7 60 -3.9 25
23:30 1019 30.09 848 25.04 3.1 37.5 61 -3.8 25.1
23:35 1019 30.09 848 25.04 3 37.4 60 -3.9 25
23:40 1019 30.09 848 25.04 3 37.5 60 -4 24.9
23:45 1019 30.09 848 25.04 3.1 37.5 59 -4.3 24.3
23:50 1019 30.09 848 25.04 3.2 37.8 58 -4.3 24.2
23:55 1019 30.09 848 25.04 3.2 37.8 58 -4.2 24.5
24:00 1019 30.09 848 25.04 3.1 37.6 60 -3.9 25